sensor_id;sensor_type;location;lat;lon;timestamp;P1;durP1;ratioP1;P2;durP2;ratioP2
16965;SDS011;8599;47.852;12.070;2023-08-06T00:00:43;4.60;;;2.57;;
16965;SDS011;8599;47.852;12.070;2023-08-06T00:03:10;3.33;;;2.90;;
16965;SDS011;8599;47.852;12.070;2023-08-06T00:05:37;2.47;;;2.27;;
16965;SDS011;8599;47.852;12.070;2023-08-06T00:08:07;2.90;;;2.60;;
16965;SDS011;8599;47.852;12.070;2023-08-06T00:10:33;5.27;;;2.60;;
16965;SDS011;8599;47.852;12.070;2023-08-06T00:13:01;4.37;;;2.47;;
16965;SDS011;8599;47.852;12.070;2023-08-06T00:15:29;6.23;;;2.13;;
16965;SDS011;8599;47.852;12.070;2023-08-06T00:17:56;2.67;;;2.00;;
16965;SDS011;8599;47.852;12.070;2023-08-06T00:20:23;5.23;;;2.00;;
16965;SDS011;8599;47.852;12.070;2023-08-06T00:22:49;2.03;;;1.90;;
16965;SDS011;8599;47.852;12.070;2023-08-06T00:25:16;2.03;;;1.90;;
16965;SDS011;8599;47.852;12.070;2023-08-06T00:27:43;3.40;;;1.60;;
16965;SDS011;8599;47.852;12.070;2023-08-06T00:30:10;1.63;;;1.53;;
16965;SDS011;8599;47.852;12.070;2023-08-06T00:32:38;2.33;;;2.10;;
16965;SDS011;8599;47.852;12.070;2023-08-06T00:35:06;1.90;;;1.60;;
16965;SDS011;8599;47.852;12.070;2023-08-06T00:37:36;1.50;;;1.40;;
16965;SDS011;8599;47.852;12.070;2023-08-06T00:40:03;2.20;;;1.70;;
16965;SDS011;8599;47.852;12.070;2023-08-06T00:42:31;1.37;;;1.27;;
16965;SDS011;8599;47.852;12.070;2023-08-06T00:44:57;2.13;;;1.60;;
16965;SDS011;8599;47.852;12.070;2023-08-06T00:47:24;1.43;;;1.33;;
16965;SDS011;8599;47.852;12.070;2023-08-06T00:49:53;1.90;;;1.50;;
16965;SDS011;8599;47.852;12.070;2023-08-06T00:52:20;1.60;;;1.50;;
16965;SDS011;8599;47.852;12.070;2023-08-06T00:54:47;3.23;;;2.03;;
16965;SDS011;8599;47.852;12.070;2023-08-06T00:57:14;1.87;;;1.77;;
16965;SDS011;8599;47.852;12.070;2023-08-06T00:59:41;1.70;;;1.60;;
16965;SDS011;8599;47.852;12.070;2023-08-06T01:02:08;2.10;;;1.90;;
16965;SDS011;8599;47.852;12.070;2023-08-06T01:04:35;3.97;;;2.07;;
16965;SDS011;8599;47.852;12.070;2023-08-06T01:07:04;3.03;;;2.50;;
16965;SDS011;8599;47.852;12.070;2023-08-06T01:09:42;2.60;;;2.40;;
16965;SDS011;8599;47.852;12.070;2023-08-06T01:12:18;3.67;;;2.90;;
16965;SDS011;8599;47.852;12.070;2023-08-06T01:14:53;2.70;;;2.50;;
16965;SDS011;8599;47.852;12.070;2023-08-06T01:17:27;4.27;;;2.90;;
16965;SDS011;8599;47.852;12.070;2023-08-06T01:19:55;4.57;;;2.60;;
16965;SDS011;8599;47.852;12.070;2023-08-06T01:22:23;3.27;;;2.77;;
16965;SDS011;8599;47.852;12.070;2023-08-06T01:24:50;4.10;;;2.50;;
16965;SDS011;8599;47.852;12.070;2023-08-06T01:27:21;2.50;;;2.30;;
16965;SDS011;8599;47.852;12.070;2023-08-06T01:29:57;4.80;;;2.93;;
16965;SDS011;8599;47.852;12.070;2023-08-06T01:32:29;3.00;;;2.50;;
16965;SDS011;8599;47.852;12.070;2023-08-06T01:35:00;2.33;;;2.20;;
16965;SDS011;8599;47.852;12.070;2023-08-06T01:37:30;6.40;;;2.40;;
16965;SDS011;8599;47.852;12.070;2023-08-06T01:39:58;3.23;;;2.30;;
16965;SDS011;8599;47.852;12.070;2023-08-06T01:42:25;2.70;;;2.40;;
16965;SDS011;8599;47.852;12.070;2023-08-06T01:44:52;3.70;;;2.13;;
16965;SDS011;8599;47.852;12.070;2023-08-06T01:47:19;5.33;;;2.30;;
16965;SDS011;8599;47.852;12.070;2023-08-06T01:49:46;4.80;;;2.40;;
16965;SDS011;8599;47.852;12.070;2023-08-06T01:52:12;2.63;;;2.20;;
16965;SDS011;8599;47.852;12.070;2023-08-06T01:54:40;2.40;;;2.13;;
16965;SDS011;8599;47.852;12.070;2023-08-06T01:57:07;3.57;;;2.27;;
16965;SDS011;8599;47.852;12.070;2023-08-06T01:59:34;3.60;;;2.60;;
16965;SDS011;8599;47.852;12.070;2023-08-06T02:02:01;2.47;;;2.27;;
16965;SDS011;8599;47.852;12.070;2023-08-06T02:04:28;2.40;;;2.13;;
16965;SDS011;8599;47.852;12.070;2023-08-06T02:06:54;2.80;;;2.20;;
16965;SDS011;8599;47.852;12.070;2023-08-06T02:09:21;2.50;;;2.30;;
16965;SDS011;8599;47.852;12.070;2023-08-06T02:11:49;5.23;;;2.40;;
16965;SDS011;8599;47.852;12.070;2023-08-06T02:14:16;3.63;;;2.10;;
16965;SDS011;8599;47.852;12.070;2023-08-06T02:16:43;3.93;;;2.30;;
16965;SDS011;8599;47.852;12.070;2023-08-06T02:19:10;2.47;;;2.27;;
16965;SDS011;8599;47.852;12.070;2023-08-06T02:21:37;7.77;;;2.60;;
16965;SDS011;8599;47.852;12.070;2023-08-06T02:24:04;2.10;;;2.00;;
16965;SDS011;8599;47.852;12.070;2023-08-06T02:26:30;2.57;;;2.37;;
16965;SDS011;8599;47.852;12.070;2023-08-06T02:28:58;2.47;;;2.20;;
16965;SDS011;8599;47.852;12.070;2023-08-06T02:31:25;2.33;;;2.13;;
16965;SDS011;8599;47.852;12.070;2023-08-06T02:33:52;4.10;;;2.00;;
16965;SDS011;8599;47.852;12.070;2023-08-06T02:36:20;2.40;;;2.03;;
16965;SDS011;8599;47.852;12.070;2023-08-06T02:38:46;2.30;;;2.10;;
16965;SDS011;8599;47.852;12.070;2023-08-06T02:41:13;2.27;;;2.07;;
16965;SDS011;8599;47.852;12.070;2023-08-06T02:43:40;2.27;;;2.00;;
16965;SDS011;8599;47.852;12.070;2023-08-06T02:46:08;4.37;;;2.10;;
16965;SDS011;8599;47.852;12.070;2023-08-06T02:48:35;1.73;;;1.63;;
16965;SDS011;8599;47.852;12.070;2023-08-06T02:51:02;2.10;;;1.90;;
16965;SDS011;8599;47.852;12.070;2023-08-06T02:53:29;2.23;;;1.87;;
16965;SDS011;8599;47.852;12.070;2023-08-06T02:55:56;2.37;;;1.73;;
16965;SDS011;8599;47.852;12.070;2023-08-06T02:58:23;2.37;;;1.70;;
16965;SDS011;8599;47.852;12.070;2023-08-06T03:01:00;1.70;;;1.60;;
16965;SDS011;8599;47.852;12.070;2023-08-06T03:03:29;1.70;;;1.60;;
16965;SDS011;8599;47.852;12.070;2023-08-06T03:05:55;2.37;;;1.70;;
16965;SDS011;8599;47.852;12.070;2023-08-06T03:08:22;3.37;;;1.63;;
16965;SDS011;8599;47.852;12.070;2023-08-06T03:10:49;1.93;;;1.77;;
16965;SDS011;8599;47.852;12.070;2023-08-06T03:13:16;6.50;;;1.50;;
16965;SDS011;8599;47.852;12.070;2023-08-06T03:15:44;1.50;;;1.27;;
16965;SDS011;8599;47.852;12.070;2023-08-06T03:18:18;2.70;;;1.57;;
16965;SDS011;8599;47.852;12.070;2023-08-06T03:20:46;1.30;;;1.20;;
16965;SDS011;8599;47.852;12.070;2023-08-06T03:23:13;2.90;;;1.80;;
16965;SDS011;8599;47.852;12.070;2023-08-06T03:25:40;1.80;;;1.50;;
16965;SDS011;8599;47.852;12.070;2023-08-06T03:28:06;2.63;;;1.30;;
16965;SDS011;8599;47.852;12.070;2023-08-06T03:30:33;2.60;;;1.73;;
16965;SDS011;8599;47.852;12.070;2023-08-06T03:33:00;1.30;;;1.20;;
16965;SDS011;8599;47.852;12.070;2023-08-06T03:35:27;2.27;;;1.30;;
16965;SDS011;8599;47.852;12.070;2023-08-06T03:37:55;2.30;;;1.63;;
16965;SDS011;8599;47.852;12.070;2023-08-06T03:40:22;1.67;;;1.53;;
16965;SDS011;8599;47.852;12.070;2023-08-06T03:42:49;1.57;;;1.43;;
16965;SDS011;8599;47.852;12.070;2023-08-06T03:45:15;2.20;;;1.90;;
16965;SDS011;8599;47.852;12.070;2023-08-06T03:47:42;2.50;;;1.80;;
16965;SDS011;8599;47.852;12.070;2023-08-06T03:50:09;3.07;;;1.70;;
16965;SDS011;8599;47.852;12.070;2023-08-06T03:52:36;2.57;;;1.57;;
16965;SDS011;8599;47.852;12.070;2023-08-06T03:55:04;1.53;;;1.43;;
16965;SDS011;8599;47.852;12.070;2023-08-06T03:57:32;1.67;;;1.57;;
16965;SDS011;8599;47.852;12.070;2023-08-06T03:59:58;4.07;;;1.60;;
16965;SDS011;8599;47.852;12.070;2023-08-06T04:02:25;3.03;;;1.60;;
16965;SDS011;8599;47.852;12.070;2023-08-06T04:04:52;1.50;;;1.40;;
16965;SDS011;8599;47.852;12.070;2023-08-06T04:07:19;2.70;;;1.93;;
16965;SDS011;8599;47.852;12.070;2023-08-06T04:09:53;1.53;;;1.20;;
16965;SDS011;8599;47.852;12.070;2023-08-06T04:12:22;2.10;;;1.60;;
16965;SDS011;8599;47.852;12.070;2023-08-06T04:14:49;4.03;;;1.73;;
16965;SDS011;8599;47.852;12.070;2023-08-06T04:17:16;1.63;;;1.53;;
16965;SDS011;8599;47.852;12.070;2023-08-06T04:19:45;2.23;;;1.70;;
16965;SDS011;8599;47.852;12.070;2023-08-06T04:22:12;2.00;;;1.43;;
16965;SDS011;8599;47.852;12.070;2023-08-06T04:24:39;3.93;;;1.77;;
16965;SDS011;8599;47.852;12.070;2023-08-06T04:27:06;2.43;;;1.80;;
16965;SDS011;8599;47.852;12.070;2023-08-06T04:29:35;1.70;;;1.60;;
16965;SDS011;8599;47.852;12.070;2023-08-06T04:32:03;1.60;;;1.37;;
16965;SDS011;8599;47.852;12.070;2023-08-06T04:34:31;1.37;;;1.20;;
16965;SDS011;8599;47.852;12.070;2023-08-06T04:36:58;1.90;;;1.60;;
16965;SDS011;8599;47.852;12.070;2023-08-06T04:39:25;2.80;;;1.60;;
16965;SDS011;8599;47.852;12.070;2023-08-06T04:41:51;2.10;;;1.53;;
16965;SDS011;8599;47.852;12.070;2023-08-06T04:44:18;3.10;;;1.50;;
16965;SDS011;8599;47.852;12.070;2023-08-06T04:46:51;1.30;;;1.20;;
16965;SDS011;8599;47.852;12.070;2023-08-06T04:49:17;2.90;;;1.40;;
16965;SDS011;8599;47.852;12.070;2023-08-06T04:51:45;1.60;;;1.50;;
16965;SDS011;8599;47.852;12.070;2023-08-06T04:54:12;1.30;;;1.20;;
16965;SDS011;8599;47.852;12.070;2023-08-06T04:56:41;1.53;;;1.20;;
16965;SDS011;8599;47.852;12.070;2023-08-06T04:59:08;1.30;;;1.20;;
16965;SDS011;8599;47.852;12.070;2023-08-06T05:01:37;1.40;;;1.30;;
16965;SDS011;8599;47.852;12.070;2023-08-06T05:04:09;2.37;;;1.50;;
16965;SDS011;8599;47.852;12.070;2023-08-06T05:06:36;2.60;;;1.57;;
16965;SDS011;8599;47.852;12.070;2023-08-06T05:09:06;1.60;;;1.47;;
16965;SDS011;8599;47.852;12.070;2023-08-06T05:11:33;2.13;;;1.40;;
16965;SDS011;8599;47.852;12.070;2023-08-06T05:13:59;1.73;;;1.40;;
16965;SDS011;8599;47.852;12.070;2023-08-06T05:16:26;3.10;;;1.47;;
16965;SDS011;8599;47.852;12.070;2023-08-06T05:18:53;3.47;;;1.50;;
16965;SDS011;8599;47.852;12.070;2023-08-06T05:21:21;1.40;;;1.30;;
16965;SDS011;8599;47.852;12.070;2023-08-06T05:23:48;1.70;;;1.30;;
16965;SDS011;8599;47.852;12.070;2023-08-06T05:26:14;1.80;;;1.23;;
16965;SDS011;8599;47.852;12.070;2023-08-06T05:28:43;3.23;;;1.37;;
16965;SDS011;8599;47.852;12.070;2023-08-06T05:31:10;4.03;;;1.40;;
16965;SDS011;8599;47.852;12.070;2023-08-06T05:33:37;3.80;;;1.23;;
16965;SDS011;8599;47.852;12.070;2023-08-06T05:36:04;2.97;;;1.20;;
16965;SDS011;8599;47.852;12.070;2023-08-06T05:38:32;1.67;;;1.57;;
16965;SDS011;8599;47.852;12.070;2023-08-06T05:40:59;1.37;;;1.20;;
16965;SDS011;8599;47.852;12.070;2023-08-06T05:43:26;1.80;;;1.40;;
16965;SDS011;8599;47.852;12.070;2023-08-06T05:45:52;1.10;;;1.07;;
16965;SDS011;8599;47.852;12.070;2023-08-06T05:48:19;2.37;;;1.13;;
16965;SDS011;8599;47.852;12.070;2023-08-06T05:50:47;1.73;;;1.40;;
16965;SDS011;8599;47.852;12.070;2023-08-06T05:53:14;1.83;;;1.37;;
16965;SDS011;8599;47.852;12.070;2023-08-06T05:55:42;1.57;;;1.43;;
16965;SDS011;8599;47.852;12.070;2023-08-06T05:58:09;1.50;;;1.37;;
16965;SDS011;8599;47.852;12.070;2023-08-06T06:00:36;2.60;;;1.47;;
16965;SDS011;8599;47.852;12.070;2023-08-06T06:03:03;1.10;;;1.10;;
16965;SDS011;8599;47.852;12.070;2023-08-06T06:05:30;1.70;;;1.20;;
16965;SDS011;8599;47.852;12.070;2023-08-06T06:07:57;2.20;;;1.17;;
16965;SDS011;8599;47.852;12.070;2023-08-06T06:10:23;2.87;;;1.20;;
16965;SDS011;8599;47.852;12.070;2023-08-06T06:12:51;1.20;;;1.10;;
16965;SDS011;8599;47.852;12.070;2023-08-06T06:15:18;1.17;;;1.10;;
16965;SDS011;8599;47.852;12.070;2023-08-06T06:17:45;1.37;;;1.27;;
16965;SDS011;8599;47.852;12.070;2023-08-06T06:20:12;1.87;;;1.10;;
16965;SDS011;8599;47.852;12.070;2023-08-06T06:22:39;2.07;;;1.30;;
16965;SDS011;8599;47.852;12.070;2023-08-06T06:25:06;2.10;;;1.40;;
16965;SDS011;8599;47.852;12.070;2023-08-06T06:27:33;1.90;;;1.50;;
16965;SDS011;8599;47.852;12.070;2023-08-06T06:30:01;1.53;;;1.00;;
16965;SDS011;8599;47.852;12.070;2023-08-06T06:32:29;1.30;;;1.10;;
16965;SDS011;8599;47.852;12.070;2023-08-06T06:34:56;2.03;;;1.07;;
16965;SDS011;8599;47.852;12.070;2023-08-06T06:37:23;1.80;;;1.00;;
16965;SDS011;8599;47.852;12.070;2023-08-06T06:39:50;3.90;;;1.20;;
16965;SDS011;8599;47.852;12.070;2023-08-06T06:42:17;3.57;;;1.27;;
16965;SDS011;8599;47.852;12.070;2023-08-06T06:44:44;1.40;;;1.30;;
16965;SDS011;8599;47.852;12.070;2023-08-06T06:47:12;1.00;;;1.00;;
16965;SDS011;8599;47.852;12.070;2023-08-06T06:49:39;1.53;;;1.23;;
16965;SDS011;8599;47.852;12.070;2023-08-06T06:52:06;2.63;;;1.57;;
16965;SDS011;8599;47.852;12.070;2023-08-06T06:54:33;4.60;;;1.50;;
16965;SDS011;8599;47.852;12.070;2023-08-06T06:57:00;1.73;;;1.50;;
16965;SDS011;8599;47.852;12.070;2023-08-06T06:59:26;2.23;;;1.13;;
16965;SDS011;8599;47.852;12.070;2023-08-06T07:01:53;2.33;;;1.10;;
16965;SDS011;8599;47.852;12.070;2023-08-06T07:04:21;0.80;;;0.80;;
16965;SDS011;8599;47.852;12.070;2023-08-06T07:06:48;1.30;;;0.90;;
16965;SDS011;8599;47.852;12.070;2023-08-06T07:09:17;1.00;;;1.00;;
16965;SDS011;8599;47.852;12.070;2023-08-06T07:11:43;0.80;;;0.80;;
16965;SDS011;8599;47.852;12.070;2023-08-06T07:14:10;1.33;;;0.97;;
16965;SDS011;8599;47.852;12.070;2023-08-06T07:16:37;1.57;;;1.20;;
16965;SDS011;8599;47.852;12.070;2023-08-06T07:19:04;1.60;;;1.10;;
16965;SDS011;8599;47.852;12.070;2023-08-06T07:21:32;1.23;;;0.83;;
16965;SDS011;8599;47.852;12.070;2023-08-06T07:23:59;1.57;;;0.93;;
16965;SDS011;8599;47.852;12.070;2023-08-06T07:26:25;1.60;;;1.07;;
16965;SDS011;8599;47.852;12.070;2023-08-06T07:28:52;1.60;;;0.90;;
16965;SDS011;8599;47.852;12.070;2023-08-06T07:31:19;1.17;;;1.00;;
16965;SDS011;8599;47.852;12.070;2023-08-06T07:33:46;1.57;;;1.07;;
16965;SDS011;8599;47.852;12.070;2023-08-06T07:36:13;0.83;;;0.83;;
16965;SDS011;8599;47.852;12.070;2023-08-06T07:38:42;1.77;;;0.97;;
16965;SDS011;8599;47.852;12.070;2023-08-06T07:41:09;1.47;;;1.17;;
16965;SDS011;8599;47.852;12.070;2023-08-06T07:43:36;1.47;;;1.20;;
16965;SDS011;8599;47.852;12.070;2023-08-06T07:46:03;1.47;;;0.90;;
16965;SDS011;8599;47.852;12.070;2023-08-06T07:48:30;1.67;;;1.00;;
16965;SDS011;8599;47.852;12.070;2023-08-06T07:50:57;1.37;;;1.10;;
16965;SDS011;8599;47.852;12.070;2023-08-06T07:53:24;13.47;;;1.90;;
16965;SDS011;8599;47.852;12.070;2023-08-06T07:55:55;2.63;;;0.90;;
16965;SDS011;8599;47.852;12.070;2023-08-06T07:58:23;3.87;;;1.30;;
16965;SDS011;8599;47.852;12.070;2023-08-06T08:00:50;0.97;;;0.87;;
16965;SDS011;8599;47.852;12.070;2023-08-06T08:03:17;1.10;;;0.90;;
16965;SDS011;8599;47.852;12.070;2023-08-06T08:05:44;1.77;;;1.17;;
16965;SDS011;8599;47.852;12.070;2023-08-06T08:08:11;4.07;;;1.03;;
16965;SDS011;8599;47.852;12.070;2023-08-06T08:10:38;0.87;;;0.83;;
16965;SDS011;8599;47.852;12.070;2023-08-06T08:13:06;1.40;;;1.00;;
16965;SDS011;8599;47.852;12.070;2023-08-06T08:15:33;1.10;;;0.90;;
16965;SDS011;8599;47.852;12.070;2023-08-06T08:18:00;1.43;;;1.00;;
16965;SDS011;8599;47.852;12.070;2023-08-06T08:20:27;2.20;;;1.50;;
16965;SDS011;8599;47.852;12.070;2023-08-06T08:22:57;1.77;;;1.00;;
16965;SDS011;8599;47.852;12.070;2023-08-06T08:25:25;2.33;;;1.00;;
16965;SDS011;8599;47.852;12.070;2023-08-06T08:27:52;1.77;;;0.93;;
16965;SDS011;8599;47.852;12.070;2023-08-06T08:30:20;1.50;;;1.07;;
16965;SDS011;8599;47.852;12.070;2023-08-06T08:32:49;1.90;;;0.90;;
16965;SDS011;8599;47.852;12.070;2023-08-06T08:35:17;3.13;;;1.73;;
16965;SDS011;8599;47.852;12.070;2023-08-06T08:37:43;1.40;;;0.80;;
16965;SDS011;8599;47.852;12.070;2023-08-06T08:40:11;0.80;;;0.80;;
16965;SDS011;8599;47.852;12.070;2023-08-06T08:42:40;0.87;;;0.80;;
16965;SDS011;8599;47.852;12.070;2023-08-06T08:45:07;1.13;;;0.80;;
16965;SDS011;8599;47.852;12.070;2023-08-06T08:47:40;0.87;;;0.60;;
16965;SDS011;8599;47.852;12.070;2023-08-06T08:50:08;0.50;;;0.50;;
16965;SDS011;8599;47.852;12.070;2023-08-06T08:52:36;1.70;;;0.80;;
16965;SDS011;8599;47.852;12.070;2023-08-06T08:55:04;0.90;;;0.67;;
16965;SDS011;8599;47.852;12.070;2023-08-06T08:57:32;0.80;;;0.70;;
16965;SDS011;8599;47.852;12.070;2023-08-06T08:59:59;4.07;;;0.80;;
16965;SDS011;8599;47.852;12.070;2023-08-06T09:02:28;2.93;;;0.97;;
16965;SDS011;8599;47.852;12.070;2023-08-06T09:04:57;3.40;;;0.90;;
16965;SDS011;8599;47.852;12.070;2023-08-06T09:07:27;4.27;;;0.40;;
16965;SDS011;8599;47.852;12.070;2023-08-06T09:09:58;6.70;;;3.03;;
16965;SDS011;8599;47.852;12.070;2023-08-06T09:12:30;0.60;;;0.60;;
16965;SDS011;8599;47.852;12.070;2023-08-06T09:14:57;3.03;;;0.50;;
16965;SDS011;8599;47.852;12.070;2023-08-06T09:17:24;0.77;;;0.60;;
16965;SDS011;8599;47.852;12.070;2023-08-06T09:19:53;0.50;;;0.40;;
16965;SDS011;8599;47.852;12.070;2023-08-06T09:22:21;1.07;;;0.40;;
16965;SDS011;8599;47.852;12.070;2023-08-06T09:24:47;0.40;;;0.40;;
16965;SDS011;8599;47.852;12.070;2023-08-06T09:27:14;0.30;;;0.30;;
16965;SDS011;8599;47.852;12.070;2023-08-06T09:29:41;0.30;;;0.30;;
16965;SDS011;8599;47.852;12.070;2023-08-06T09:32:10;0.30;;;0.30;;
16965;SDS011;8599;47.852;12.070;2023-08-06T09:34:38;0.77;;;0.40;;
16965;SDS011;8599;47.852;12.070;2023-08-06T09:37:05;1.43;;;0.70;;
16965;SDS011;8599;47.852;12.070;2023-08-06T09:39:35;0.73;;;0.40;;
16965;SDS011;8599;47.852;12.070;2023-08-06T09:42:04;0.37;;;0.30;;
16965;SDS011;8599;47.852;12.070;2023-08-06T09:44:31;1.50;;;0.93;;
16965;SDS011;8599;47.852;12.070;2023-08-06T09:46:59;1.23;;;0.40;;
16965;SDS011;8599;47.852;12.070;2023-08-06T09:49:27;0.30;;;0.30;;
16965;SDS011;8599;47.852;12.070;2023-08-06T09:51:54;0.23;;;0.20;;
16965;SDS011;8599;47.852;12.070;2023-08-06T09:54:23;0.33;;;0.30;;
16965;SDS011;8599;47.852;12.070;2023-08-06T09:56:53;0.30;;;0.30;;
16965;SDS011;8599;47.852;12.070;2023-08-06T09:59:20;3.45;;;0.70;;
16965;SDS011;8599;47.852;12.070;2023-08-06T10:01:48;3.43;;;0.47;;
16965;SDS011;8599;47.852;12.070;2023-08-06T10:04:15;0.55;;;0.40;;
16965;SDS011;8599;47.852;12.070;2023-08-06T10:06:43;0.30;;;0.30;;
16965;SDS011;8599;47.852;12.070;2023-08-06T10:09:13;3.80;;;0.80;;
16965;SDS011;8599;47.852;12.070;2023-08-06T10:11:40;0.30;;;0.30;;
16965;SDS011;8599;47.852;12.070;2023-08-06T10:14:16;3.90;;;0.40;;
16965;SDS011;8599;47.852;12.070;2023-08-06T10:16:47;0.30;;;0.30;;
16965;SDS011;8599;47.852;12.070;2023-08-06T10:19:15;0.20;;;0.20;;
16965;SDS011;8599;47.852;12.070;2023-08-06T10:21:46;0.35;;;0.28;;
16965;SDS011;8599;47.852;12.070;2023-08-06T10:24:47;0.20;;;0.20;;
16965;SDS011;8599;47.852;12.070;2023-08-06T10:27:21;0.45;;;0.40;;
16965;SDS011;8599;47.852;12.070;2023-08-06T10:29:50;1.33;;;0.40;;
16965;SDS011;8599;47.852;12.070;2023-08-06T10:32:20;0.33;;;0.30;;
16965;SDS011;8599;47.852;12.070;2023-08-06T10:34:54;0.50;;;0.30;;
16965;SDS011;8599;47.852;12.070;2023-08-06T10:37:22;0.43;;;0.30;;
16965;SDS011;8599;47.852;12.070;2023-08-06T10:39:49;0.63;;;0.30;;
16965;SDS011;8599;47.852;12.070;2023-08-06T10:42:20;1.50;;;0.33;;
16965;SDS011;8599;47.852;12.070;2023-08-06T10:47:45;0.20;;;0.20;;
16965;SDS011;8599;47.852;12.070;2023-08-06T10:50:12;0.20;;;0.20;;
16965;SDS011;8599;47.852;12.070;2023-08-06T10:52:41;0.35;;;0.30;;
16965;SDS011;8599;47.852;12.070;2023-08-06T10:55:09;0.25;;;0.25;;
16965;SDS011;8599;47.852;12.070;2023-08-06T10:57:36;0.22;;;0.22;;
16965;SDS011;8599;47.852;12.070;2023-08-06T11:00:04;1.50;;;0.30;;
16965;SDS011;8599;47.852;12.070;2023-08-06T11:02:34;2.13;;;0.38;;
16965;SDS011;8599;47.852;12.070;2023-08-06T11:05:05;0.63;;;0.28;;
16965;SDS011;8599;47.852;12.070;2023-08-06T11:07:33;0.20;;;0.20;;
16965;SDS011;8599;47.852;12.070;2023-08-06T11:10:03;0.20;;;0.20;;
16965;SDS011;8599;47.852;12.070;2023-08-06T11:12:31;0.20;;;0.20;;
16965;SDS011;8599;47.852;12.070;2023-08-06T11:14:59;0.40;;;0.27;;
16965;SDS011;8599;47.852;12.070;2023-08-06T11:17:26;0.20;;;0.20;;
16965;SDS011;8599;47.852;12.070;2023-08-06T11:19:55;0.97;;;0.23;;
16965;SDS011;8599;47.852;12.070;2023-08-06T11:22:22;0.20;;;0.20;;
16965;SDS011;8599;47.852;12.070;2023-08-06T11:24:49;3.13;;;0.67;;
16965;SDS011;8599;47.852;12.070;2023-08-06T11:27:16;0.27;;;0.27;;
16965;SDS011;8599;47.852;12.070;2023-08-06T11:29:43;0.28;;;0.25;;
16965;SDS011;8599;47.852;12.070;2023-08-06T11:32:11;0.20;;;0.20;;
16965;SDS011;8599;47.852;12.070;2023-08-06T11:34:39;0.50;;;0.20;;
16965;SDS011;8599;47.852;12.070;2023-08-06T11:37:08;0.63;;;0.30;;
16965;SDS011;8599;47.852;12.070;2023-08-06T11:39:36;0.20;;;0.20;;
16965;SDS011;8599;47.852;12.070;2023-08-06T11:42:04;0.40;;;0.40;;
16965;SDS011;8599;47.852;12.070;2023-08-06T11:44:32;5.73;;;0.30;;
16965;SDS011;8599;47.852;12.070;2023-08-06T11:47:01;0.33;;;0.30;;
16965;SDS011;8599;47.852;12.070;2023-08-06T11:49:39;0.20;;;0.20;;
16965;SDS011;8599;47.852;12.070;2023-08-06T11:52:19;0.20;;;0.20;;
16965;SDS011;8599;47.852;12.070;2023-08-06T11:54:59;0.93;;;0.30;;
16965;SDS011;8599;47.852;12.070;2023-08-06T11:57:28;3.67;;;0.40;;
16965;SDS011;8599;47.852;12.070;2023-08-06T11:59:57;0.40;;;0.40;;
16965;SDS011;8599;47.852;12.070;2023-08-06T12:02:31;4.80;;;0.30;;
16965;SDS011;8599;47.852;12.070;2023-08-06T12:05:03;0.20;;;0.20;;
16965;SDS011;8599;47.852;12.070;2023-08-06T12:07:32;0.73;;;0.30;;
16965;SDS011;8599;47.852;12.070;2023-08-06T12:10:02;0.30;;;0.27;;
16965;SDS011;8599;47.852;12.070;2023-08-06T12:12:30;0.40;;;0.20;;
16965;SDS011;8599;47.852;12.070;2023-08-06T12:14:57;1.30;;;0.20;;
16965;SDS011;8599;47.852;12.070;2023-08-06T12:17:24;0.47;;;0.30;;
16965;SDS011;8599;47.852;12.070;2023-08-06T12:19:51;0.83;;;0.20;;
16965;SDS011;8599;47.852;12.070;2023-08-06T12:22:18;0.20;;;0.20;;
16965;SDS011;8599;47.852;12.070;2023-08-06T12:24:46;2.73;;;0.20;;
16965;SDS011;8599;47.852;12.070;2023-08-06T12:27:13;0.80;;;0.30;;
16965;SDS011;8599;47.852;12.070;2023-08-06T12:29:41;0.30;;;0.30;;
16965;SDS011;8599;47.852;12.070;2023-08-06T12:32:09;0.20;;;0.20;;
16965;SDS011;8599;47.852;12.070;2023-08-06T12:34:37;0.23;;;0.23;;
16965;SDS011;8599;47.852;12.070;2023-08-06T12:37:04;0.40;;;0.20;;
16965;SDS011;8599;47.852;12.070;2023-08-06T12:39:31;2.72;;;0.20;;
16965;SDS011;8599;47.852;12.070;2023-08-06T12:41:59;0.40;;;0.35;;
16965;SDS011;8599;47.852;12.070;2023-08-06T12:44:26;1.45;;;0.30;;
16965;SDS011;8599;47.852;12.070;2023-08-06T12:46:53;0.20;;;0.20;;
16965;SDS011;8599;47.852;12.070;2023-08-06T12:49:20;0.10;;;0.10;;
16965;SDS011;8599;47.852;12.070;2023-08-06T12:51:47;1.50;;;0.40;;
16965;SDS011;8599;47.852;12.070;2023-08-06T12:54:15;2.37;;;0.97;;
16965;SDS011;8599;47.852;12.070;2023-08-06T12:56:43;0.30;;;0.30;;
16965;SDS011;8599;47.852;12.070;2023-08-06T12:59:11;0.20;;;0.20;;
16965;SDS011;8599;47.852;12.070;2023-08-06T13:01:40;0.40;;;0.27;;
16965;SDS011;8599;47.852;12.070;2023-08-06T13:04:07;0.20;;;0.20;;
16965;SDS011;8599;47.852;12.070;2023-08-06T13:06:35;0.20;;;0.20;;
16965;SDS011;8599;47.852;12.070;2023-08-06T13:09:02;0.10;;;0.10;;
16965;SDS011;8599;47.852;12.070;2023-08-06T13:11:29;0.23;;;0.23;;
16965;SDS011;8599;47.852;12.070;2023-08-06T13:13:58;0.37;;;0.10;;
16965;SDS011;8599;47.852;12.070;2023-08-06T13:16:31;0.10;;;0.10;;
16965;SDS011;8599;47.852;12.070;2023-08-06T13:18:57;0.20;;;0.20;;
16965;SDS011;8599;47.852;12.070;2023-08-06T13:21:24;0.33;;;0.33;;
16965;SDS011;8599;47.852;12.070;2023-08-06T13:23:57;0.20;;;0.20;;
16965;SDS011;8599;47.852;12.070;2023-08-06T13:26:23;0.13;;;0.13;;
16965;SDS011;8599;47.852;12.070;2023-08-06T13:28:50;0.20;;;0.20;;
16965;SDS011;8599;47.852;12.070;2023-08-06T13:31:17;0.10;;;0.10;;
16965;SDS011;8599;47.852;12.070;2023-08-06T13:33:45;0.80;;;0.30;;
16965;SDS011;8599;47.852;12.070;2023-08-06T13:36:13;0.10;;;0.10;;
16965;SDS011;8599;47.852;12.070;2023-08-06T13:38:40;0.20;;;0.20;;
16965;SDS011;8599;47.852;12.070;2023-08-06T13:41:07;0.20;;;0.20;;
16965;SDS011;8599;47.852;12.070;2023-08-06T13:43:34;0.20;;;0.20;;
16965;SDS011;8599;47.852;12.070;2023-08-06T13:46:00;0.32;;;0.32;;
16965;SDS011;8599;47.852;12.070;2023-08-06T13:48:27;0.20;;;0.20;;
16965;SDS011;8599;47.852;12.070;2023-08-06T13:50:55;2.53;;;0.20;;
16965;SDS011;8599;47.852;12.070;2023-08-06T13:53:22;0.15;;;0.15;;
16965;SDS011;8599;47.852;12.070;2023-08-06T13:55:50;0.70;;;0.20;;
16965;SDS011;8599;47.852;12.070;2023-08-06T13:58:17;2.43;;;0.20;;
16965;SDS011;8599;47.852;12.070;2023-08-06T14:00:43;0.17;;;0.10;;
16965;SDS011;8599;47.852;12.070;2023-08-06T14:03:11;0.23;;;0.23;;
16965;SDS011;8599;47.852;12.070;2023-08-06T14:05:38;0.43;;;0.43;;
16965;SDS011;8599;47.852;12.070;2023-08-06T14:08:06;0.30;;;0.30;;
16965;SDS011;8599;47.852;12.070;2023-08-06T14:10:33;0.20;;;0.20;;
16965;SDS011;8599;47.852;12.070;2023-08-06T14:12:59;0.17;;;0.17;;
16965;SDS011;8599;47.852;12.070;2023-08-06T14:15:26;0.20;;;0.20;;
16965;SDS011;8599;47.852;12.070;2023-08-06T14:17:53;0.20;;;0.20;;
16965;SDS011;8599;47.852;12.070;2023-08-06T14:20:20;0.40;;;0.40;;
16965;SDS011;8599;47.852;12.070;2023-08-06T14:22:46;0.30;;;0.30;;
16965;SDS011;8599;47.852;12.070;2023-08-06T14:25:15;0.17;;;0.17;;
16965;SDS011;8599;47.852;12.070;2023-08-06T14:27:43;0.20;;;0.20;;
16965;SDS011;8599;47.852;12.070;2023-08-06T14:30:10;0.30;;;0.30;;
16965;SDS011;8599;47.852;12.070;2023-08-06T14:32:37;0.30;;;0.20;;
16965;SDS011;8599;47.852;12.070;2023-08-06T14:35:04;0.30;;;0.30;;
16965;SDS011;8599;47.852;12.070;2023-08-06T14:37:32;0.20;;;0.20;;
16965;SDS011;8599;47.852;12.070;2023-08-06T14:39:58;1.27;;;0.33;;
16965;SDS011;8599;47.852;12.070;2023-08-06T14:42:26;2.80;;;0.30;;
16965;SDS011;8599;47.852;12.070;2023-08-06T14:44:53;0.20;;;0.20;;
16965;SDS011;8599;47.852;12.070;2023-08-06T14:47:20;0.20;;;0.20;;
16965;SDS011;8599;47.852;12.070;2023-08-06T14:49:47;0.20;;;0.20;;
16965;SDS011;8599;47.852;12.070;2023-08-06T14:52:14;0.40;;;0.40;;
16965;SDS011;8599;47.852;12.070;2023-08-06T14:54:41;0.80;;;0.80;;